createdAt,value
2023-05-09T02:17:00.367Z,0.1
2023-05-09T02:19:00.196Z,0.2
2023-05-09T02:20:01.597Z,0.3
2023-05-09T02:22:00.216Z,0.4
2023-05-09T02:23:00.201Z,0.5
2023-05-09T02:25:00.413Z,0.7
2023-05-09T02:26:00.192Z,0.8
2023-05-09T02:27:00.200Z,0.9
2023-05-09T02:28:00.201Z,1.1
2023-05-09T02:29:00.212Z,1.2
2023-05-09T02:30:00.796Z,1.4
2023-05-09T02:32:00.253Z,1.8
2023-05-09T02:33:00.345Z,2.0
2023-05-09T02:34:00.206Z,2.2
2023-05-09T02:35:00.422Z,2.5
2023-05-09T02:36:00.203Z,2.7
2023-05-09T02:37:00.213Z,3.1
2023-05-09T02:38:00.256Z,3.5
2023-05-09T02:39:00.204Z,3.9
2023-05-09T02:40:00.417Z,4.4
2023-05-09T02:41:00.212Z,4.9
2023-05-09T02:42:00.205Z,5.6
2023-05-09T02:43:00.228Z,6.3
2023-05-09T02:44:00.200Z,7.1
2023-05-09T02:45:01.915Z,8.1
2023-05-09T02:47:00.230Z,10.4
2023-05-09T02:48:00.322Z,11.7
2023-05-09T02:49:00.334Z,13.1
2023-05-09T02:50:00.867Z,14.9
2023-05-09T02:51:00.212Z,16.8
2023-05-09T02:52:00.213Z,19.4
2023-05-09T02:53:00.208Z,22.0
2023-05-09T02:54:00.207Z,24.6
2023-05-09T02:55:00.458Z,28.3
2023-05-09T02:56:00.236Z,31.9
2023-05-09T02:57:00.203Z,37.1
2023-05-09T02:58:12.485Z,42.3
2023-05-09T02:59:00.209Z,47.5
2023-05-09T03:00:01.122Z,54.9
2023-05-09T03:02:00.228Z,73.1
2023-05-09T03:03:00.241Z,83.9
2023-05-09T03:04:00.302Z,94.7
2023-05-09T03:07:00.210Z,152.9
2023-05-09T03:08:00.207Z,178.3
2023-05-09T03:09:00.207Z,203.8
2023-05-09T03:10:01.324Z,240.5
2023-05-09T03:11:00.239Z,277.1
2023-05-09T03:12:00.216Z,324.9
2023-05-09T03:13:00.224Z,372.7
2023-05-09T03:14:00.221Z,420.5
2023-05-09T03:15:01.039Z,482.9
2023-05-09T03:17:00.215Z,624.9
2023-05-09T03:18:00.260Z,704.4
2023-05-09T03:19:00.208Z,783.9
2023-05-09T03:20:05.012Z,884.0
2023-05-09T03:22:00.212Z,1105.5
2023-05-09T03:23:00.206Z,1226.9
2023-05-09T03:24:00.227Z,1348.3
2023-05-09T03:25:00.429Z,1483.2
2023-05-09T03:26:00.242Z,1618.1
2023-05-09T03:27:00.213Z,1749.4
2023-05-09T03:28:00.209Z,1880.7
2023-05-09T03:29:00.227Z,2011.9
2023-05-09T03:30:01.776Z,2145.3
2023-05-09T03:32:00.236Z,2423.3
2023-05-09T03:33:00.262Z,2568.1
2023-05-09T03:34:00.215Z,2712.8
2023-05-09T03:35:01.405Z,2870.9
2023-05-09T03:36:00.256Z,3029.1
2023-05-09T03:37:00.426Z,3221.1
2023-05-09T03:38:00.286Z,3413.1
2023-05-09T03:39:00.224Z,3605.1
2023-05-09T03:42:00.227Z,4465.5
2023-05-09T03:43:00.284Z,4814.8
2023-05-09T03:44:00.221Z,5164.1
2023-05-09T03:45:01.055Z,5587.9
2023-05-09T03:46:00.699Z,6011.7
2023-05-09T03:47:00.257Z,6462.8
2023-05-09T03:48:00.249Z,6913.9
2023-05-09T03:49:00.225Z,7364.9
2023-05-09T03:50:01.124Z,7854.7
2023-05-09T03:52:00.234Z,8829.1
2023-05-09T03:53:00.345Z,9313.7
2023-05-09T03:54:00.237Z,9798.3
2023-05-09T03:55:00.474Z,10243.5
2023-05-09T03:56:00.299Z,10688.6
2023-05-09T03:57:00.223Z,11091.6
2023-05-09T03:58:00.232Z,11494.6
2023-05-09T03:59:00.228Z,11897.6
2023-05-09T04:02:00.287Z,12938.5
2023-05-09T04:03:00.360Z,13263.3
2023-05-09T04:04:00.249Z,13588.2
2023-05-09T04:05:15.439Z,13877.1
2023-05-09T04:06:00.497Z,14165.9
2023-05-09T04:07:00.231Z,14466.9
2023-05-09T04:08:00.215Z,14767.9
2023-05-09T04:09:00.402Z,15068.9
2023-05-09T04:10:00.248Z,15405.7
2023-05-09T04:11:00.467Z,15742.4
2023-05-09T04:12:00.236Z,16172.3
2023-05-09T04:13:00.298Z,16602.3
2023-05-09T04:14:00.239Z,17032.2
2023-05-09T04:15:01.083Z,17574.2
2023-05-09T04:16:00.475Z,18116.2
2023-05-09T04:17:00.318Z,18796.5
2023-05-09T04:18:00.263Z,19476.7
2023-05-09T04:19:00.231Z,20157.0
2023-05-09T04:20:01.043Z,20907.1
2023-05-09T04:21:00.480Z,21657.1
2023-05-09T04:22:00.236Z,22392.7
2023-05-09T04:23:00.235Z,23128.3
2023-05-09T04:24:00.230Z,23863.9
2023-05-09T04:25:00.364Z,24532.5
2023-05-09T04:26:00.470Z,25201.1
2023-05-09T04:27:00.240Z,25736.1
2023-05-09T04:28:00.239Z,26271.1
2023-05-09T04:29:00.249Z,26806.1
2023-05-09T04:32:00.361Z,27833.9
2023-05-09T04:33:00.275Z,28120.0
2023-05-09T04:34:00.239Z,28406.1
2023-05-09T04:35:00.890Z,28717.7
2023-05-09T04:36:00.792Z,29029.3
2023-05-09T04:37:00.234Z,29365.0
2023-05-09T04:38:00.239Z,29700.7
2023-05-09T04:39:00.254Z,30036.5
2023-05-09T04:40:00.996Z,30408.2
2023-05-09T04:41:00.585Z,30779.9
2023-05-09T04:42:00.243Z,31275.5
2023-05-09T04:43:00.244Z,31771.1
2023-05-09T04:44:00.250Z,32266.7
2023-05-09T04:45:00.829Z,32990.5
2023-05-09T04:46:00.841Z,33714.3
2023-05-09T04:47:00.280Z,34389.9
2023-05-09T04:48:00.278Z,35065.5
2023-05-09T04:49:00.245Z,35741.1
2023-05-09T04:50:00.928Z,36253.1
2023-05-09T04:51:00.482Z,36765.0
2023-05-09T04:52:00.244Z,37246.7
2023-05-09T04:53:00.249Z,37728.5
2023-05-09T04:54:00.244Z,38210.2
2023-05-09T04:55:00.865Z,38920.9
2023-05-09T04:56:00.944Z,39631.5
2023-05-09T04:57:10.168Z,40488.3
2023-05-09T04:58:00.226Z,41345.1
2023-05-09T04:59:00.250Z,42201.9
2023-05-09T05:00:01.056Z,42773.4
2023-05-09T05:01:00.501Z,43344.9
2023-05-09T05:02:00.385Z,43455.1
2023-05-09T05:03:00.257Z,43565.3
2023-05-09T05:04:00.293Z,43675.5
2023-05-09T05:05:15.278Z,43727.7
2023-05-09T05:06:01.037Z,43779.9
2023-05-09T05:07:00.246Z,43964.3
2023-05-09T05:08:00.243Z,44148.8
2023-05-09T05:09:00.248Z,44333.3
2023-05-09T05:10:00.869Z,44626.5
2023-05-09T05:11:00.495Z,44919.7
2023-05-09T05:12:02.631Z,45227.0
2023-05-09T05:13:00.421Z,45534.3
2023-05-09T05:14:00.248Z,45841.7
2023-05-09T05:15:00.877Z,46480.1
2023-05-09T05:16:00.543Z,47118.6
2023-05-09T05:17:00.256Z,48224.6
2023-05-09T05:18:00.297Z,49330.6
2023-05-09T05:19:00.256Z,50436.6
2023-05-09T05:20:01.082Z,51604.7
2023-05-09T05:21:00.745Z,52772.9
2023-05-09T05:22:00.256Z,53753.8
2023-05-09T05:23:00.254Z,54734.7
2023-05-09T05:24:00.258Z,55715.7
2023-05-09T05:25:00.270Z,55735.4
2023-05-09T05:26:00.504Z,55755.1
2023-05-09T05:27:00.305Z,56044.8
2023-05-09T05:28:00.269Z,56334.5
2023-05-09T05:29:00.382Z,56624.1
2023-05-09T05:30:01.098Z,56613.9
2023-05-09T05:31:01.460Z,56603.6
2023-05-09T05:32:00.430Z,56165.4
2023-05-09T05:33:00.274Z,55727.2
2023-05-09T05:34:00.256Z,55289.0
2023-05-09T05:35:00.372Z,55014.1
2023-05-09T05:36:00.659Z,54739.1
2023-05-09T05:37:00.284Z,54909.8
2023-05-09T05:38:00.264Z,55080.5
2023-05-09T05:39:00.264Z,55251.1
2023-05-09T05:40:01.140Z,56108.9
2023-05-09T05:41:00.465Z,56966.6
2023-05-09T05:42:00.280Z,57331.7
2023-05-09T05:43:00.262Z,57696.7
2023-05-09T05:44:00.256Z,58061.8
2023-05-09T05:45:00.868Z,58577.9
2023-05-09T05:46:01.486Z,59094.1
2023-05-09T05:47:00.500Z,60030.5
2023-05-09T05:48:00.267Z,60967.0
2023-05-09T05:49:00.257Z,61903.5
2023-05-09T05:50:00.817Z,62698.1
2023-05-09T05:51:00.463Z,63492.7
2023-05-09T05:52:00.356Z,63845.0
2023-05-09T05:53:01.291Z,64197.3
2023-05-09T05:54:00.266Z,64549.7
2023-05-09T05:55:00.293Z,64783.7
2023-05-09T05:56:00.946Z,65017.8
2023-05-09T05:57:00.295Z,65169.9
2023-05-09T05:58:00.248Z,65322.1
2023-05-09T05:59:00.268Z,65474.2
2023-05-09T06:00:01.135Z,65504.6
2023-05-09T06:01:00.584Z,65535.0
2023-05-09T06:15:01.115Z,65535.0
2023-05-09T10:00:03.303Z,65535.0
2023-05-09T10:30:02.050Z,65535.0
2023-05-09T10:45:02.059Z,65535.0
2023-05-09T11:15:02.440Z,65535.0
2023-05-09T12:30:02.486Z,65535.0
2023-05-09T16:15:01.390Z,65535.0
2023-05-09T16:40:00.771Z,65346.2
2023-05-09T16:41:00.407Z,65157.4
2023-05-09T16:42:00.428Z,64968.6
2023-05-09T16:43:00.430Z,64550.7
2023-05-09T16:44:00.461Z,64132.9
2023-05-09T16:47:00.411Z,62216.9
2023-05-09T16:48:02.105Z,61428.8
2023-05-09T16:49:00.407Z,60640.7
2023-05-09T16:50:00.825Z,59739.7
2023-05-09T16:51:00.415Z,58838.7
2023-05-09T16:52:00.409Z,57937.7
2023-05-09T16:53:00.414Z,56895.1
2023-05-09T16:54:00.419Z,55852.4
2023-05-09T16:55:00.669Z,54906.1
2023-05-09T16:56:00.517Z,53959.7
2023-05-09T16:57:00.418Z,53013.4
2023-05-09T16:58:00.415Z,52224.5
2023-05-09T16:59:00.417Z,51435.7
2023-05-09T17:02:00.541Z,49454.9
2023-05-09T17:03:00.562Z,48844.7
2023-05-09T17:04:00.437Z,48234.6
2023-05-09T17:07:00.429Z,46587.6
2023-05-09T17:08:00.421Z,46140.1
2023-05-09T17:09:00.423Z,45692.7
2023-05-09T17:10:01.200Z,45324.1
2023-05-09T17:12:00.424Z,44586.9
2023-05-09T17:13:00.496Z,44284.4
2023-05-09T17:14:00.434Z,43981.9
2023-05-09T17:15:01.251Z,43761.7
2023-05-09T17:17:00.449Z,43321.3
2023-05-09T17:18:00.615Z,43201.7
2023-05-09T17:19:00.496Z,43082.0
2023-05-09T17:22:00.427Z,42802.0
2023-05-09T17:23:00.430Z,42765.1
2023-05-09T17:24:00.503Z,42728.1
2023-05-09T17:27:00.498Z,42529.1
2023-05-09T17:28:00.512Z,42447.9
2023-05-09T17:29:00.498Z,42366.6
2023-05-09T17:32:00.632Z,42157.4
2023-05-09T17:33:00.455Z,42092.9
2023-05-09T17:34:00.551Z,42028.5
2023-05-09T17:35:01.419Z,41975.5
2023-05-09T17:37:00.429Z,41869.7
2023-05-09T17:38:00.450Z,41782.3
2023-05-09T17:39:00.490Z,41694.9
2023-05-09T17:40:01.325Z,41606.3
2023-05-09T17:42:00.459Z,41429.3
2023-05-09T17:43:00.430Z,41309.8
2023-05-09T17:44:00.431Z,41190.3
2023-05-09T17:45:01.665Z,41010.9
2023-05-09T17:47:00.430Z,40651.9
2023-05-09T17:48:00.468Z,40391.5
2023-05-09T17:49:00.429Z,40131.1
2023-05-09T17:52:00.446Z,39205.5
2023-05-09T17:53:00.453Z,38844.4
2023-05-09T17:54:00.461Z,38483.3
2023-05-09T17:57:00.452Z,37303.7
2023-05-09T17:58:00.438Z,36891.3
2023-05-09T17:59:00.436Z,36479.0
2023-05-09T18:00:06.061Z,36055.5
2023-05-09T18:02:00.543Z,35208.6
2023-05-09T18:03:00.737Z,34778.5
2023-05-09T18:04:00.447Z,34348.5
2023-05-09T18:05:01.508Z,33903.6
2023-05-09T18:07:00.443Z,33013.9
2023-05-09T18:08:00.443Z,32559.3
2023-05-09T18:09:00.439Z,32104.8
2023-05-09T18:10:01.463Z,31646.3
2023-05-09T18:12:00.437Z,30729.4
2023-05-09T18:13:00.476Z,30259.9
2023-05-09T18:14:00.438Z,29790.5
2023-05-09T18:15:01.306Z,29304.3
2023-05-09T18:17:00.551Z,28331.9
2023-05-09T18:18:00.490Z,27831.3
2023-05-09T18:19:00.434Z,27330.8
2023-05-09T18:22:00.563Z,25726.4
2023-05-09T18:23:00.503Z,25146.5
2023-05-09T18:24:00.444Z,24566.5
2023-05-09T18:25:01.209Z,23935.5
2023-05-09T18:27:00.448Z,22673.3
2023-05-09T18:28:00.441Z,21997.9
2023-05-09T18:29:00.451Z,21322.4
2023-05-09T18:32:00.522Z,19213.0
2023-05-09T18:33:00.513Z,18508.7
2023-05-09T18:34:00.444Z,17804.3
2023-05-09T18:37:00.450Z,15756.9
2023-05-09T18:38:00.570Z,15116.4
